sensor_id;sensor_type;location;lat;lon;timestamp;pressure;altitude;pressure_sealevel;temperature;humidity
72896;BME280;61036;53.224;6.554;2023-07-13T00:02:09;101153.91;;;22.89;100.00
72896;BME280;61036;53.224;6.554;2023-07-13T00:04:35;101161.34;;;23.33;100.00
72896;BME280;61036;53.224;6.554;2023-07-13T00:07:01;101157.34;;;22.91;100.00
72896;BME280;61036;53.224;6.554;2023-07-13T00:09:30;101159.50;;;22.81;100.00
72896;BME280;61036;53.224;6.554;2023-07-13T00:11:56;101170.13;;;22.84;100.00
72896;BME280;61036;53.224;6.554;2023-07-13T00:14:24;101166.09;;;23.24;100.00
72896;BME280;61036;53.224;6.554;2023-07-13T00:16:50;101168.22;;;22.70;100.00
72896;BME280;61036;53.224;6.554;2023-07-13T00:19:15;101172.66;;;23.23;100.00
72896;BME280;61036;53.224;6.554;2023-07-13T00:21:41;101169.22;;;23.21;100.00
72896;BME280;61036;53.224;6.554;2023-07-13T00:24:08;101169.63;;;23.18;100.00
72896;BME280;61036;53.224;6.554;2023-07-13T00:26:41;101164.41;;;23.23;100.00
72896;BME280;61036;53.224;6.554;2023-07-13T00:29:11;101171.09;;;22.91;100.00
72896;BME280;61036;53.224;6.554;2023-07-13T00:31:37;101166.03;;;22.80;100.00
72896;BME280;61036;53.224;6.554;2023-07-13T00:34:04;101165.66;;;22.83;100.00
72896;BME280;61036;53.224;6.554;2023-07-13T00:36:30;101171.75;;;22.78;100.00
72896;BME280;61036;53.224;6.554;2023-07-13T00:38:56;101182.44;;;22.73;100.00
72896;BME280;61036;53.224;6.554;2023-07-13T00:41:23;101177.69;;;22.67;100.00
72896;BME280;61036;53.224;6.554;2023-07-13T00:43:48;101169.03;;;22.09;100.00
72896;BME280;61036;53.224;6.554;2023-07-13T00:48:51;101172.38;;;23.18;100.00
72896;BME280;61036;53.224;6.554;2023-07-13T00:51:23;101171.13;;;23.06;100.00
72896;BME280;61036;53.224;6.554;2023-07-13T00:53:50;101167.63;;;23.27;100.00
72896;BME280;61036;53.224;6.554;2023-07-13T00:56:17;101169.22;;;23.07;100.00
72896;BME280;61036;53.224;6.554;2023-07-13T00:58:43;101174.00;;;22.75;100.00
72896;BME280;61036;53.224;6.554;2023-07-13T01:01:09;101169.63;;;23.18;100.00
72896;BME280;61036;53.224;6.554;2023-07-13T01:03:35;101180.31;;;23.13;100.00
72896;BME280;61036;53.224;6.554;2023-07-13T01:06:01;101181.09;;;23.37;100.00
72896;BME280;61036;53.224;6.554;2023-07-13T01:08:27;101175.69;;;22.38;100.00
72896;BME280;61036;53.224;6.554;2023-07-13T01:10:56;101183.75;;;23.30;100.00
72896;BME280;61036;53.224;6.554;2023-07-13T01:13:23;101179.28;;;22.99;100.00
72896;BME280;61036;53.224;6.554;2023-07-13T01:15:52;101176.34;;;23.45;100.00
72896;BME280;61036;53.224;6.554;2023-07-13T01:18:27;101182.44;;;23.26;100.00
72896;BME280;61036;53.224;6.554;2023-07-13T01:20:57;101181.53;;;22.58;100.00
72896;BME280;61036;53.224;6.554;2023-07-13T01:23:23;101182.53;;;22.80;100.00
72896;BME280;61036;53.224;6.554;2023-07-13T01:25:50;101182.66;;;22.49;100.00
72896;BME280;61036;53.224;6.554;2023-07-13T01:28:17;101181.31;;;22.82;100.00
72896;BME280;61036;53.224;6.554;2023-07-13T01:30:45;101181.09;;;22.69;100.00
72896;BME280;61036;53.224;6.554;2023-07-13T01:33:17;101183.38;;;22.66;100.00
72896;BME280;61036;53.224;6.554;2023-07-13T01:35:44;101174.72;;;23.07;100.00
72896;BME280;61036;53.224;6.554;2023-07-13T01:38:11;101168.06;;;22.48;100.00
72896;BME280;61036;53.224;6.554;2023-07-13T01:40:37;101175.09;;;22.51;100.00
72896;BME280;61036;53.224;6.554;2023-07-13T01:43:03;101180.34;;;22.37;100.00
72896;BME280;61036;53.224;6.554;2023-07-13T01:45:28;101192.94;;;22.01;100.00
72896;BME280;61036;53.224;6.554;2023-07-13T01:47:54;101190.91;;;22.49;100.00
72896;BME280;61036;53.224;6.554;2023-07-13T01:50:19;101190.78;;;22.19;100.00
72896;BME280;61036;53.224;6.554;2023-07-13T01:52:45;101183.69;;;22.86;100.00
72896;BME280;61036;53.224;6.554;2023-07-13T01:55:13;101181.50;;;22.81;100.00
72896;BME280;61036;53.224;6.554;2023-07-13T01:57:40;101185.97;;;22.82;100.00
72896;BME280;61036;53.224;6.554;2023-07-13T02:00:08;101188.59;;;23.28;100.00
72896;BME280;61036;53.224;6.554;2023-07-13T02:02:45;101188.00;;;22.65;100.00
72896;BME280;61036;53.224;6.554;2023-07-13T02:05:12;101188.00;;;22.65;100.00
72896;BME280;61036;53.224;6.554;2023-07-13T02:07:38;101190.22;;;22.70;100.00
72896;BME280;61036;53.224;6.554;2023-07-13T02:10:06;101190.94;;;23.01;100.00
72896;BME280;61036;53.224;6.554;2023-07-13T02:12:31;101189.00;;;22.87;100.00
72896;BME280;61036;53.224;6.554;2023-07-13T02:14:57;101188.91;;;22.80;100.00
72896;BME280;61036;53.224;6.554;2023-07-13T02:17:23;101184.56;;;22.25;100.00
72896;BME280;61036;53.224;6.554;2023-07-13T02:19:48;101186.25;;;22.49;100.00
72896;BME280;61036;53.224;6.554;2023-07-13T02:22:14;101192.09;;;22.00;100.00
72896;BME280;61036;53.224;6.554;2023-07-13T02:24:39;101187.34;;;22.63;100.00
72896;BME280;61036;53.224;6.554;2023-07-13T02:27:05;101183.38;;;22.66;100.00
72896;BME280;61036;53.224;6.554;2023-07-13T02:29:30;101180.88;;;22.56;100.00
72896;BME280;61036;53.224;6.554;2023-07-13T02:31:56;101188.09;;;22.57;100.00
72896;BME280;61036;53.224;6.554;2023-07-13T02:34:23;101187.00;;;22.43;100.00
72896;BME280;61036;53.224;6.554;2023-07-13T02:36:48;101188.31;;;22.32;100.00
72896;BME280;61036;53.224;6.554;2023-07-13T02:39:14;101193.63;;;21.72;100.00
72896;BME280;61036;53.224;6.554;2023-07-13T02:41:41;101190.53;;;22.29;100.00
72896;BME280;61036;53.224;6.554;2023-07-13T02:44:06;101182.66;;;22.49;100.00
72896;BME280;61036;53.224;6.554;2023-07-13T02:46:36;101187.25;;;22.56;100.00
72896;BME280;61036;53.224;6.554;2023-07-13T02:49:02;101192.38;;;22.36;100.00
72896;BME280;61036;53.224;6.554;2023-07-13T02:51:28;101195.19;;;22.28;100.00
72896;BME280;61036;53.224;6.554;2023-07-13T02:53:54;101190.16;;;22.32;100.00
72896;BME280;61036;53.224;6.554;2023-07-13T02:56:23;101189.88;;;22.27;100.00
72896;BME280;61036;53.224;6.554;2023-07-13T02:58:50;101185.63;;;22.16;100.00
72896;BME280;61036;53.224;6.554;2023-07-13T03:01:16;101193.91;;;21.85;100.00
72896;BME280;61036;53.224;6.554;2023-07-13T03:03:48;101177.47;;;22.54;100.00
72896;BME280;61036;53.224;6.554;2023-07-13T03:06:14;101188.94;;;22.34;100.00
72896;BME280;61036;53.224;6.554;2023-07-13T03:08:48;101184.69;;;22.32;100.00
72896;BME280;61036;53.224;6.554;2023-07-13T03:11:19;101183.19;;;22.44;100.00
72896;BME280;61036;53.224;6.554;2023-07-13T03:13:51;101182.91;;;21.85;100.00
72896;BME280;61036;53.224;6.554;2023-07-13T03:16:18;101189.06;;;21.87;100.00
72896;BME280;61036;53.224;6.554;2023-07-13T03:18:46;101188.22;;;22.41;100.00
72896;BME280;61036;53.224;6.554;2023-07-13T03:21:12;101194.22;;;22.21;100.00
72896;BME280;61036;53.224;6.554;2023-07-13T03:23:38;101197.97;;;22.20;100.00
72896;BME280;61036;53.224;6.554;2023-07-13T03:26:16;101205.47;;;22.03;100.00
72896;BME280;61036;53.224;6.554;2023-07-13T03:28:42;101204.81;;;21.93;100.00
72896;BME280;61036;53.224;6.554;2023-07-13T03:31:20;101204.97;;;22.31;100.00
72896;BME280;61036;53.224;6.554;2023-07-13T03:33:46;101198.25;;;22.33;100.00
72896;BME280;61036;53.224;6.554;2023-07-13T03:36:24;101208.13;;;22.43;100.00
72896;BME280;61036;53.224;6.554;2023-07-13T03:38:58;101205.91;;;22.15;100.00
72896;BME280;61036;53.224;6.554;2023-07-13T03:41:28;101205.53;;;21.56;100.00
72896;BME280;61036;53.224;6.554;2023-07-13T03:43:57;101210.63;;;21.67;100.00
72896;BME280;61036;53.224;6.554;2023-07-13T03:46:24;101209.47;;;21.53;100.00
72896;BME280;61036;53.224;6.554;2023-07-13T03:48:50;101210.75;;;21.82;100.00
72896;BME280;61036;53.224;6.554;2023-07-13T03:51:17;101212.47;;;21.75;100.00
72896;BME280;61036;53.224;6.554;2023-07-13T03:53:44;101216.69;;;21.94;100.00
72896;BME280;61036;53.224;6.554;2023-07-13T03:56:13;101215.88;;;21.85;100.00
72896;BME280;61036;53.224;6.554;2023-07-13T03:58:42;101213.75;;;22.26;100.00
72896;BME280;61036;53.224;6.554;2023-07-13T04:01:17;101217.72;;;22.24;100.00
72896;BME280;61036;53.224;6.554;2023-07-13T04:03:43;101215.28;;;22.52;100.00
72896;BME280;61036;53.224;6.554;2023-07-13T04:06:15;101214.38;;;22.59;100.00
72896;BME280;61036;53.224;6.554;2023-07-13T04:08:57;101227.19;;;22.13;100.00
72896;BME280;61036;53.224;6.554;2023-07-13T04:11:26;101216.50;;;22.26;100.00
72896;BME280;61036;53.224;6.554;2023-07-13T04:13:52;101219.50;;;22.08;100.00
72896;BME280;61036;53.224;6.554;2023-07-13T04:16:18;101231.44;;;21.92;100.00
72896;BME280;61036;53.224;6.554;2023-07-13T04:18:45;101235.34;;;22.52;100.00
72896;BME280;61036;53.224;6.554;2023-07-13T04:21:12;101234.06;;;21.78;100.00
72896;BME280;61036;53.224;6.554;2023-07-13T04:23:38;101233.31;;;21.61;100.00
72896;BME280;61036;53.224;6.554;2023-07-13T04:26:04;101232.72;;;22.59;100.00
72896;BME280;61036;53.224;6.554;2023-07-13T04:28:30;101242.50;;;21.76;100.00
72896;BME280;61036;53.224;6.554;2023-07-13T04:30:56;101238.19;;;22.13;100.00
72896;BME280;61036;53.224;6.554;2023-07-13T04:33:21;101240.06;;;22.44;100.00
72896;BME280;61036;53.224;6.554;2023-07-13T04:35:51;101239.03;;;22.22;100.00
72896;BME280;61036;53.224;6.554;2023-07-13T04:38:22;101244.81;;;22.50;100.00
72896;BME280;61036;53.224;6.554;2023-07-13T04:40:50;101246.25;;;22.14;100.00
72896;BME280;61036;53.224;6.554;2023-07-13T04:43:17;101242.94;;;22.50;100.00
72896;BME280;61036;53.224;6.554;2023-07-13T04:45:42;101246.66;;;22.03;100.00
72896;BME280;61036;53.224;6.554;2023-07-13T04:48:08;101249.59;;;22.33;100.00
72896;BME280;61036;53.224;6.554;2023-07-13T04:50:36;101248.84;;;22.62;100.00
72896;BME280;61036;53.224;6.554;2023-07-13T04:53:02;101261.00;;;21.82;100.00
72896;BME280;61036;53.224;6.554;2023-07-13T04:55:29;101256.78;;;22.34;100.00
72896;BME280;61036;53.224;6.554;2023-07-13T04:57:56;101259.59;;;22.95;100.00
72896;BME280;61036;53.224;6.554;2023-07-13T05:00:23;101264.16;;;22.42;100.00
72896;BME280;61036;53.224;6.554;2023-07-13T05:02:49;101259.97;;;22.46;100.00
72896;BME280;61036;53.224;6.554;2023-07-13T05:05:14;101260.72;;;22.08;100.00
72896;BME280;61036;53.224;6.554;2023-07-13T05:07:40;101264.97;;;22.65;100.00
72896;BME280;61036;53.224;6.554;2023-07-13T05:10:06;101267.91;;;22.64;100.00
72896;BME280;61036;53.224;6.554;2023-07-13T05:12:32;101275.56;;;21.91;100.00
72896;BME280;61036;53.224;6.554;2023-07-13T05:14:58;101272.25;;;21.96;100.00
72896;BME280;61036;53.224;6.554;2023-07-13T05:17:23;101276.56;;;23.36;100.00
72896;BME280;61036;53.224;6.554;2023-07-13T05:19:49;101275.06;;;23.48;100.00
72896;BME280;61036;53.224;6.554;2023-07-13T05:22:14;101268.88;;;23.61;100.00
72896;BME280;61036;53.224;6.554;2023-07-13T05:24:40;101273.75;;;23.89;100.00
72896;BME280;61036;53.224;6.554;2023-07-13T05:27:05;101269.25;;;22.91;100.00
72896;BME280;61036;53.224;6.554;2023-07-13T05:29:31;101269.84;;;22.32;100.00
72896;BME280;61036;53.224;6.554;2023-07-13T05:31:56;101281.19;;;23.21;100.00
72896;BME280;61036;53.224;6.554;2023-07-13T05:34:23;101292.41;;;24.08;100.00
72896;BME280;61036;53.224;6.554;2023-07-13T05:36:48;101286.75;;;23.65;100.00
72896;BME280;61036;53.224;6.554;2023-07-13T05:39:15;101285.81;;;23.05;100.00
72896;BME280;61036;53.224;6.554;2023-07-13T05:41:40;101295.50;;;22.24;100.00
72896;BME280;61036;53.224;6.554;2023-07-13T05:44:06;101293.66;;;23.61;100.00
72896;BME280;61036;53.224;6.554;2023-07-13T05:46:31;101286.78;;;22.90;100.00
72896;BME280;61036;53.224;6.554;2023-07-13T05:48:57;101287.66;;;23.28;100.00
72896;BME280;61036;53.224;6.554;2023-07-13T05:51:22;101294.06;;;22.82;100.00
72896;BME280;61036;53.224;6.554;2023-07-13T05:53:48;101302.63;;;23.78;100.00
72896;BME280;61036;53.224;6.554;2023-07-13T05:56:13;101286.53;;;23.67;100.00
72896;BME280;61036;53.224;6.554;2023-07-13T05:58:39;101299.53;;;24.17;100.00
72896;BME280;61036;53.224;6.554;2023-07-13T06:01:06;101303.31;;;24.31;100.00
72896;BME280;61036;53.224;6.554;2023-07-13T06:03:33;101300.03;;;23.91;100.00
72896;BME280;61036;53.224;6.554;2023-07-13T06:05:59;101306.53;;;22.93;100.00
72896;BME280;61036;53.224;6.554;2023-07-13T06:08:27;101310.16;;;23.61;100.00
72896;BME280;61036;53.224;6.554;2023-07-13T06:10:53;101303.59;;;23.18;100.00
72896;BME280;61036;53.224;6.554;2023-07-13T06:13:19;101307.63;;;23.60;100.00
72896;BME280;61036;53.224;6.554;2023-07-13T06:15:49;101311.16;;;24.13;100.00
72896;BME280;61036;53.224;6.554;2023-07-13T06:18:15;101315.09;;;24.25;100.00
72896;BME280;61036;53.224;6.554;2023-07-13T06:20:40;101321.44;;;24.40;100.00
72896;BME280;61036;53.224;6.554;2023-07-13T06:23:06;101325.34;;;24.46;100.00
72896;BME280;61036;53.224;6.554;2023-07-13T06:25:31;101320.66;;;24.61;100.00
72896;BME280;61036;53.224;6.554;2023-07-13T06:27:57;101320.03;;;25.30;100.00
72896;BME280;61036;53.224;6.554;2023-07-13T06:30:22;101327.22;;;25.25;100.00
72896;BME280;61036;53.224;6.554;2023-07-13T06:32:51;101306.88;;;25.61;100.00
72896;BME280;61036;53.224;6.554;2023-07-13T06:35:16;101324.00;;;25.21;100.00
72896;BME280;61036;53.224;6.554;2023-07-13T06:37:42;101325.13;;;25.90;100.00
72896;BME280;61036;53.224;6.554;2023-07-13T06:40:08;101318.91;;;25.53;100.00
72896;BME280;61036;53.224;6.554;2023-07-13T06:42:33;101319.34;;;25.57;100.00
72896;BME280;61036;53.224;6.554;2023-07-13T06:44:59;101337.59;;;25.51;100.00
72896;BME280;61036;53.224;6.554;2023-07-13T06:47:24;101333.91;;;24.94;100.00
72896;BME280;61036;53.224;6.554;2023-07-13T06:49:49;101340.00;;;25.32;100.00
72896;BME280;61036;53.224;6.554;2023-07-13T06:52:15;101337.81;;;25.21;100.00
72896;BME280;61036;53.224;6.554;2023-07-13T06:54:40;101342.00;;;25.17;100.00
72896;BME280;61036;53.224;6.554;2023-07-13T06:57:08;101343.28;;;25.43;100.00
72896;BME280;61036;53.224;6.554;2023-07-13T06:59:34;101344.97;;;25.44;100.00
72896;BME280;61036;53.224;6.554;2023-07-13T07:01:59;101354.16;;;24.44;100.00
72896;BME280;61036;53.224;6.554;2023-07-13T07:04:25;101335.75;;;25.93;100.00
72896;BME280;61036;53.224;6.554;2023-07-13T07:06:51;101342.19;;;26.00;100.00
72896;BME280;61036;53.224;6.554;2023-07-13T07:09:16;101348.25;;;24.32;100.00
72896;BME280;61036;53.224;6.554;2023-07-13T07:11:42;101351.91;;;25.61;100.00
72896;BME280;61036;53.224;6.554;2023-07-13T07:14:08;101343.81;;;25.10;100.00
72896;BME280;61036;53.224;6.554;2023-07-13T07:16:33;101353.38;;;26.81;100.00
72896;BME280;61036;53.224;6.554;2023-07-13T07:18:59;101336.53;;;26.70;100.00
72896;BME280;61036;53.224;6.554;2023-07-13T07:21:24;101346.69;;;26.08;100.00
72896;BME280;61036;53.224;6.554;2023-07-13T07:23:51;101346.88;;;25.71;100.00
72896;BME280;61036;53.224;6.554;2023-07-13T07:26:17;101357.81;;;26.21;100.00
72896;BME280;61036;53.224;6.554;2023-07-13T07:28:43;101351.03;;;25.32;100.00
72896;BME280;61036;53.224;6.554;2023-07-13T07:31:08;101355.25;;;25.28;100.00
72896;BME280;61036;53.224;6.554;2023-07-13T07:33:34;101362.31;;;26.29;100.00
72896;BME280;61036;53.224;6.554;2023-07-13T07:36:00;101357.16;;;26.74;100.00
72896;BME280;61036;53.224;6.554;2023-07-13T07:38:26;101370.38;;;26.72;100.00
72896;BME280;61036;53.224;6.554;2023-07-13T07:40:52;101370.75;;;26.62;100.00
72896;BME280;61036;53.224;6.554;2023-07-13T07:43:18;101365.91;;;26.77;100.00
72896;BME280;61036;53.224;6.554;2023-07-13T07:45:44;101364.88;;;25.89;100.00
72896;BME280;61036;53.224;6.554;2023-07-13T07:48:10;101368.00;;;26.62;100.00
72896;BME280;61036;53.224;6.554;2023-07-13T07:50:36;101363.09;;;26.51;100.00
72896;BME280;61036;53.224;6.554;2023-07-13T07:53:02;101365.56;;;25.69;100.00
72896;BME280;61036;53.224;6.554;2023-07-13T07:55:28;101372.56;;;25.72;100.00
72896;BME280;61036;53.224;6.554;2023-07-13T07:57:59;101370.13;;;25.55;100.00
72896;BME280;61036;53.224;6.554;2023-07-13T08:00:24;101371.84;;;25.57;100.00
72896;BME280;61036;53.224;6.554;2023-07-13T08:02:50;101376.03;;;25.81;100.00
72896;BME280;61036;53.224;6.554;2023-07-13T08:05:16;101377.16;;;23.77;100.00
72896;BME280;61036;53.224;6.554;2023-07-13T08:07:42;101378.03;;;23.77;100.00
72896;BME280;61036;53.224;6.554;2023-07-13T08:10:08;101376.44;;;23.45;100.00
72896;BME280;61036;53.224;6.554;2023-07-13T08:12:38;101374.66;;;24.41;100.00
72896;BME280;61036;53.224;6.554;2023-07-13T08:15:05;101374.34;;;24.66;100.00
72896;BME280;61036;53.224;6.554;2023-07-13T08:17:31;101369.50;;;25.82;100.00
72896;BME280;61036;53.224;6.554;2023-07-13T08:19:57;101374.09;;;25.74;100.00
72896;BME280;61036;53.224;6.554;2023-07-13T08:22:22;101382.19;;;25.05;100.00
72896;BME280;61036;53.224;6.554;2023-07-13T08:24:48;101387.56;;;25.84;100.00
72896;BME280;61036;53.224;6.554;2023-07-13T08:27:20;101389.69;;;26.58;99.40
72896;BME280;61036;53.224;6.554;2023-07-13T08:29:47;101382.66;;;26.62;100.00
72896;BME280;61036;53.224;6.554;2023-07-13T08:32:13;101380.63;;;27.04;100.00
72896;BME280;61036;53.224;6.554;2023-07-13T08:34:39;101387.34;;;26.62;100.00
72896;BME280;61036;53.224;6.554;2023-07-13T08:37:05;101390.00;;;25.94;100.00
72896;BME280;61036;53.224;6.554;2023-07-13T08:39:31;101384.38;;;25.59;100.00
72896;BME280;61036;53.224;6.554;2023-07-13T08:42:01;101390.66;;;25.18;100.00
72896;BME280;61036;53.224;6.554;2023-07-13T08:45:05;101390.75;;;26.57;100.00
72896;BME280;61036;53.224;6.554;2023-07-13T08:47:35;101378.25;;;26.75;100.00
72896;BME280;61036;53.224;6.554;2023-07-13T08:50:03;101365.13;;;27.17;100.00
72896;BME280;61036;53.224;6.554;2023-07-13T08:52:33;101379.88;;;28.87;100.00
72896;BME280;61036;53.224;6.554;2023-07-13T08:55:26;101375.22;;;29.44;100.00
72896;BME280;61036;53.224;6.554;2023-07-13T08:58:03;101373.34;;;30.25;94.47
72896;BME280;61036;53.224;6.554;2023-07-13T09:03:16;101373.78;;;29.10;97.12
72896;BME280;61036;53.224;6.554;2023-07-13T09:05:51;101367.81;;;28.16;98.45
72896;BME280;61036;53.224;6.554;2023-07-13T09:08:42;101373.84;;;27.93;100.00
72896;BME280;61036;53.224;6.554;2023-07-13T09:11:33;101372.31;;;26.98;100.00
72896;BME280;61036;53.224;6.554;2023-07-13T09:14:26;101382.19;;;27.27;100.00
72896;BME280;61036;53.224;6.554;2023-07-13T09:16:57;101383.41;;;26.98;100.00
72896;BME280;61036;53.224;6.554;2023-07-13T09:19:28;101380.69;;;27.64;100.00
72896;BME280;61036;53.224;6.554;2023-07-13T09:21:59;101375.75;;;27.99;99.74
72896;BME280;61036;53.224;6.554;2023-07-13T09:27:27;101374.38;;;29.12;93.68
72896;BME280;61036;53.224;6.554;2023-07-13T09:30:02;101372.59;;;28.54;90.27
72896;BME280;61036;53.224;6.554;2023-07-13T09:32:28;101375.72;;;28.19;87.85
72896;BME280;61036;53.224;6.554;2023-07-13T09:34:55;101369.59;;;29.26;81.32
72896;BME280;61036;53.224;6.554;2023-07-13T09:37:24;101373.41;;;30.00;80.48
72896;BME280;61036;53.224;6.554;2023-07-13T09:39:55;101369.72;;;30.06;81.82
72896;BME280;61036;53.224;6.554;2023-07-13T09:42:22;101389.22;;;27.36;90.00
72896;BME280;61036;53.224;6.554;2023-07-13T09:44:53;101379.50;;;28.32;89.16
72896;BME280;61036;53.224;6.554;2023-07-13T09:47:28;101391.47;;;28.19;86.97
72896;BME280;61036;53.224;6.554;2023-07-13T09:50:10;101380.91;;;27.89;88.93
72896;BME280;61036;53.224;6.554;2023-07-13T09:52:47;101385.88;;;28.84;88.19
72896;BME280;61036;53.224;6.554;2023-07-13T09:55:40;101386.25;;;28.56;85.60
72896;BME280;61036;53.224;6.554;2023-07-13T09:58:20;101395.81;;;29.05;85.83
72896;BME280;61036;53.224;6.554;2023-07-13T10:00:59;101399.25;;;27.90;86.70
72896;BME280;61036;53.224;6.554;2023-07-13T10:03:29;101412.50;;;26.67;86.24
72896;BME280;61036;53.224;6.554;2023-07-13T10:06:03;101413.00;;;27.04;86.49
72896;BME280;61036;53.224;6.554;2023-07-13T10:08:30;101416.97;;;26.27;85.87
72896;BME280;61036;53.224;6.554;2023-07-13T10:14:16;101411.09;;;27.04;82.83
72896;BME280;61036;53.224;6.554;2023-07-13T10:16:43;101413.06;;;27.70;81.65
72896;BME280;61036;53.224;6.554;2023-07-13T10:19:14;101413.16;;;28.48;80.27
72896;BME280;61036;53.224;6.554;2023-07-13T10:22:02;101418.97;;;29.24;78.77
72896;BME280;61036;53.224;6.554;2023-07-13T10:24:37;101420.00;;;28.53;78.52
72896;BME280;61036;53.224;6.554;2023-07-13T10:27:23;101420.00;;;28.53;78.69
72896;BME280;61036;53.224;6.554;2023-07-13T10:32:38;101421.34;;;29.45;78.20
72896;BME280;61036;53.224;6.554;2023-07-13T10:35:04;101416.06;;;29.12;73.55
72896;BME280;61036;53.224;6.554;2023-07-13T10:40:19;101425.88;;;27.58;77.91
72896;BME280;61036;53.224;6.554;2023-07-13T10:42:48;101427.16;;;27.35;79.13
72896;BME280;61036;53.224;6.554;2023-07-13T10:45:17;101435.91;;;27.32;82.92
72896;BME280;61036;53.224;6.554;2023-07-13T10:47:44;101438.34;;;27.01;85.65
72896;BME280;61036;53.224;6.554;2023-07-13T10:50:18;101426.59;;;28.52;79.47
72896;BME280;61036;53.224;6.554;2023-07-13T10:52:50;101431.41;;;29.14;75.79
72896;BME280;61036;53.224;6.554;2023-07-13T10:58:03;101436.69;;;30.04;73.79
72896;BME280;61036;53.224;6.554;2023-07-13T11:00:43;101444.03;;;29.42;71.99
72896;BME280;61036;53.224;6.554;2023-07-13T11:03:13;101447.72;;;30.11;67.54
72896;BME280;61036;53.224;6.554;2023-07-13T11:05:40;101443.69;;;29.32;68.33
72896;BME280;61036;53.224;6.554;2023-07-13T11:10:54;101433.19;;;30.34;69.48
72896;BME280;61036;53.224;6.554;2023-07-13T11:13:55;101442.66;;;29.83;74.34
72896;BME280;61036;53.224;6.554;2023-07-13T11:18:51;101434.16;;;28.83;74.11
72896;BME280;61036;53.224;6.554;2023-07-13T11:21:17;101439.41;;;28.53;74.84
72896;BME280;61036;53.224;6.554;2023-07-13T11:23:45;101445.19;;;29.34;71.56
72896;BME280;61036;53.224;6.554;2023-07-13T11:26:38;101442.72;;;30.20;71.42
72896;BME280;61036;53.224;6.554;2023-07-13T11:31:53;101447.16;;;30.46;66.15
72896;BME280;61036;53.224;6.554;2023-07-13T11:34:31;101450.03;;;30.14;64.37
72896;BME280;61036;53.224;6.554;2023-07-13T11:36:59;101435.06;;;29.97;69.25
72896;BME280;61036;53.224;6.554;2023-07-13T11:39:30;101461.28;;;29.51;70.77
72896;BME280;61036;53.224;6.554;2023-07-13T11:42:00;101456.28;;;29.66;72.24
72896;BME280;61036;53.224;6.554;2023-07-13T11:44:29;101465.28;;;30.12;72.84
72896;BME280;61036;53.224;6.554;2023-07-13T11:46:57;101461.47;;;29.31;70.03
72896;BME280;61036;53.224;6.554;2023-07-13T11:49:28;101461.19;;;29.01;67.33
72896;BME280;61036;53.224;6.554;2023-07-13T11:51:56;101467.59;;;28.49;63.94
72896;BME280;61036;53.224;6.554;2023-07-13T11:54:46;101459.66;;;30.18;64.21
72896;BME280;61036;53.224;6.554;2023-07-13T11:57:29;101476.19;;;30.13;69.28
72896;BME280;61036;53.224;6.554;2023-07-13T11:59:58;101468.50;;;29.65;73.96
72896;BME280;61036;53.224;6.554;2023-07-13T12:02:36;101461.63;;;30.11;70.97
72896;BME280;61036;53.224;6.554;2023-07-13T12:05:04;101473.13;;;29.01;74.77
72896;BME280;61036;53.224;6.554;2023-07-13T12:07:32;101472.41;;;29.82;68.43
72896;BME280;61036;53.224;6.554;2023-07-13T12:12:55;101464.00;;;30.33;71.35
72896;BME280;61036;53.224;6.554;2023-07-13T12:15:22;101467.16;;;29.93;70.24
72896;BME280;61036;53.224;6.554;2023-07-13T12:17:49;101462.00;;;28.63;72.42
72896;BME280;61036;53.224;6.554;2023-07-13T12:20:21;101473.00;;;30.10;61.44
72896;BME280;61036;53.224;6.554;2023-07-13T12:22:48;101476.06;;;28.68;67.10
72896;BME280;61036;53.224;6.554;2023-07-13T12:25:15;101496.78;;;29.80;66.51
72896;BME280;61036;53.224;6.554;2023-07-13T12:27:41;101487.38;;;29.81;65.40
72896;BME280;61036;53.224;6.554;2023-07-13T12:35:29;101484.09;;;27.98;68.24
72896;BME280;61036;53.224;6.554;2023-07-13T12:38:00;101508.81;;;28.26;67.00
72896;BME280;61036;53.224;6.554;2023-07-13T12:40:33;101519.66;;;28.54;72.96
72896;BME280;61036;53.224;6.554;2023-07-13T12:43:00;101523.72;;;28.52;79.02
72896;BME280;61036;53.224;6.554;2023-07-13T12:45:30;101518.22;;;29.03;74.63
72896;BME280;61036;53.224;6.554;2023-07-13T12:48:11;101520.72;;;28.40;76.61
72896;BME280;61036;53.224;6.554;2023-07-13T12:50:43;101526.34;;;29.43;73.77
72896;BME280;61036;53.224;6.554;2023-07-13T12:53:17;101520.06;;;29.23;73.69
72896;BME280;61036;53.224;6.554;2023-07-13T12:55:48;101510.47;;;29.50;78.84
72896;BME280;61036;53.224;6.554;2023-07-13T12:58:27;101512.28;;;29.95;76.33
72896;BME280;61036;53.224;6.554;2023-07-13T13:00:56;101504.72;;;29.13;76.41
72896;BME280;61036;53.224;6.554;2023-07-13T13:03:31;101507.69;;;30.07;76.71
72896;BME280;61036;53.224;6.554;2023-07-13T13:06:23;101503.47;;;29.09;78.78
72896;BME280;61036;53.224;6.554;2023-07-13T13:08:51;101515.22;;;29.43;75.96
72896;BME280;61036;53.224;6.554;2023-07-13T13:11:21;101512.75;;;29.92;77.28
72896;BME280;61036;53.224;6.554;2023-07-13T13:13:48;101520.38;;;29.39;75.82
72896;BME280;61036;53.224;6.554;2023-07-13T13:16:20;101519.97;;;29.36;76.12
72896;BME280;61036;53.224;6.554;2023-07-13T13:18:47;101530.97;;;29.56;77.20
72896;BME280;61036;53.224;6.554;2023-07-13T13:21:13;101530.91;;;28.79;80.33
72896;BME280;61036;53.224;6.554;2023-07-13T13:23:38;101531.81;;;28.60;81.29
72896;BME280;61036;53.224;6.554;2023-07-13T13:26:09;101546.56;;;29.89;78.36
72896;BME280;61036;53.224;6.554;2023-07-13T13:28:36;101539.66;;;29.73;75.13